sensor_id;sensor_type;location;lat;lon;timestamp;temperature;humidity
5881;DHT22;2966;52.598;10.928;2023-01-24T00:01:39;1.20;99.90
5881;DHT22;2966;52.598;10.928;2023-01-24T00:04:06;1.20;99.90
5881;DHT22;2966;52.598;10.928;2023-01-24T00:06:32;1.20;99.90
5881;DHT22;2966;52.598;10.928;2023-01-24T00:08:59;1.20;99.90
5881;DHT22;2966;52.598;10.928;2023-01-24T00:11:27;1.20;99.90
5881;DHT22;2966;52.598;10.928;2023-01-24T00:13:54;1.20;99.90
5881;DHT22;2966;52.598;10.928;2023-01-24T00:16:22;1.20;99.90
5881;DHT22;2966;52.598;10.928;2023-01-24T00:18:49;1.20;99.90
5881;DHT22;2966;52.598;10.928;2023-01-24T00:21:18;1.20;99.90
5881;DHT22;2966;52.598;10.928;2023-01-24T00:23:46;1.20;99.90
5881;DHT22;2966;52.598;10.928;2023-01-24T00:26:14;1.10;99.90
5881;DHT22;2966;52.598;10.928;2023-01-24T00:28:42;1.20;99.90
5881;DHT22;2966;52.598;10.928;2023-01-24T00:31:09;1.20;99.90
5881;DHT22;2966;52.598;10.928;2023-01-24T00:33:36;1.10;99.90
5881;DHT22;2966;52.598;10.928;2023-01-24T00:36:03;1.10;99.90
5881;DHT22;2966;52.598;10.928;2023-01-24T00:38:33;1.20;99.90
5881;DHT22;2966;52.598;10.928;2023-01-24T00:40:59;1.20;99.90
5881;DHT22;2966;52.598;10.928;2023-01-24T00:43:26;1.20;99.90
5881;DHT22;2966;52.598;10.928;2023-01-24T00:45:54;1.20;99.90
5881;DHT22;2966;52.598;10.928;2023-01-24T00:48:21;1.20;99.90
5881;DHT22;2966;52.598;10.928;2023-01-24T00:50:49;1.20;99.90
5881;DHT22;2966;52.598;10.928;2023-01-24T00:53:15;1.20;99.90
5881;DHT22;2966;52.598;10.928;2023-01-24T00:55:44;1.20;99.90
5881;DHT22;2966;52.598;10.928;2023-01-24T00:58:11;1.20;99.90
5881;DHT22;2966;52.598;10.928;2023-01-24T01:00:39;1.10;99.90
5881;DHT22;2966;52.598;10.928;2023-01-24T01:03:14;1.10;99.90
5881;DHT22;2966;52.598;10.928;2023-01-24T01:05:41;1.20;99.90
5881;DHT22;2966;52.598;10.928;2023-01-24T01:08:08;1.20;99.90
5881;DHT22;2966;52.598;10.928;2023-01-24T01:10:35;1.20;99.90
5881;DHT22;2966;52.598;10.928;2023-01-24T01:13:04;1.10;99.90
5881;DHT22;2966;52.598;10.928;2023-01-24T01:15:32;1.10;99.90
5881;DHT22;2966;52.598;10.928;2023-01-24T01:17:58;1.20;99.90
5881;DHT22;2966;52.598;10.928;2023-01-24T01:20:26;1.20;99.90
5881;DHT22;2966;52.598;10.928;2023-01-24T01:22:53;1.20;99.90
5881;DHT22;2966;52.598;10.928;2023-01-24T01:25:20;1.20;99.90
5881;DHT22;2966;52.598;10.928;2023-01-24T01:27:47;1.20;99.90
5881;DHT22;2966;52.598;10.928;2023-01-24T01:30:14;1.20;99.90
5881;DHT22;2966;52.598;10.928;2023-01-24T01:32:40;1.20;99.90
5881;DHT22;2966;52.598;10.928;2023-01-24T01:35:07;1.20;99.90
5881;DHT22;2966;52.598;10.928;2023-01-24T01:37:35;1.20;99.90
5881;DHT22;2966;52.598;10.928;2023-01-24T01:40:03;1.20;99.90
5881;DHT22;2966;52.598;10.928;2023-01-24T01:42:40;1.20;99.90
5881;DHT22;2966;52.598;10.928;2023-01-24T01:45:33;1.20;99.90
5881;DHT22;2966;52.598;10.928;2023-01-24T01:48:02;1.20;99.90
5881;DHT22;2966;52.598;10.928;2023-01-24T01:50:34;1.20;99.90
5881;DHT22;2966;52.598;10.928;2023-01-24T01:53:03;1.20;99.90
5881;DHT22;2966;52.598;10.928;2023-01-24T01:55:33;1.20;99.90
5881;DHT22;2966;52.598;10.928;2023-01-24T01:58:02;1.20;99.90
5881;DHT22;2966;52.598;10.928;2023-01-24T02:00:29;1.20;99.90
5881;DHT22;2966;52.598;10.928;2023-01-24T02:03:01;1.20;99.90
5881;DHT22;2966;52.598;10.928;2023-01-24T02:05:43;1.20;99.90
5881;DHT22;2966;52.598;10.928;2023-01-24T02:08:15;1.20;99.90
5881;DHT22;2966;52.598;10.928;2023-01-24T02:10:44;1.20;99.90
5881;DHT22;2966;52.598;10.928;2023-01-24T02:13:29;1.20;99.90
5881;DHT22;2966;52.598;10.928;2023-01-24T02:15:56;1.20;99.90
5881;DHT22;2966;52.598;10.928;2023-01-24T02:18:29;1.20;99.90
5881;DHT22;2966;52.598;10.928;2023-01-24T02:20:56;1.20;99.90
5881;DHT22;2966;52.598;10.928;2023-01-24T02:23:32;1.20;99.90
5881;DHT22;2966;52.598;10.928;2023-01-24T02:26:08;1.20;99.90
5881;DHT22;2966;52.598;10.928;2023-01-24T02:28:35;1.20;99.90
5881;DHT22;2966;52.598;10.928;2023-01-24T02:31:03;1.20;99.90
5881;DHT22;2966;52.598;10.928;2023-01-24T02:33:31;1.20;99.90
5881;DHT22;2966;52.598;10.928;2023-01-24T02:36:13;1.20;99.90
5881;DHT22;2966;52.598;10.928;2023-01-24T02:38:44;1.20;99.90
5881;DHT22;2966;52.598;10.928;2023-01-24T02:41:13;1.20;99.90
5881;DHT22;2966;52.598;10.928;2023-01-24T02:43:45;1.20;99.90
5881;DHT22;2966;52.598;10.928;2023-01-24T02:46:14;1.20;99.90
5881;DHT22;2966;52.598;10.928;2023-01-24T02:48:40;1.20;99.90
5881;DHT22;2966;52.598;10.928;2023-01-24T02:51:07;1.20;99.90
5881;DHT22;2966;52.598;10.928;2023-01-24T02:53:51;1.20;99.90
5881;DHT22;2966;52.598;10.928;2023-01-24T02:56:19;1.20;99.90
5881;DHT22;2966;52.598;10.928;2023-01-24T02:59:04;1.20;99.90
5881;DHT22;2966;52.598;10.928;2023-01-24T03:01:30;1.20;99.90
5881;DHT22;2966;52.598;10.928;2023-01-24T03:03:57;1.10;99.90
5881;DHT22;2966;52.598;10.928;2023-01-24T03:06:24;1.20;99.90
5881;DHT22;2966;52.598;10.928;2023-01-24T03:08:51;1.20;99.90
5881;DHT22;2966;52.598;10.928;2023-01-24T03:11:19;1.10;99.90
5881;DHT22;2966;52.598;10.928;2023-01-24T03:13:45;1.20;99.90
5881;DHT22;2966;52.598;10.928;2023-01-24T03:16:30;1.20;99.90
5881;DHT22;2966;52.598;10.928;2023-01-24T03:19:14;1.10;99.90
5881;DHT22;2966;52.598;10.928;2023-01-24T03:21:59;1.20;99.90
5881;DHT22;2966;52.598;10.928;2023-01-24T03:24:43;1.20;99.90
5881;DHT22;2966;52.598;10.928;2023-01-24T03:27:29;1.20;99.90
5881;DHT22;2966;52.598;10.928;2023-01-24T03:30:13;1.20;99.90
5881;DHT22;2966;52.598;10.928;2023-01-24T03:32:58;1.20;99.90
5881;DHT22;2966;52.598;10.928;2023-01-24T03:35:43;1.20;99.90
5881;DHT22;2966;52.598;10.928;2023-01-24T03:38:19;1.20;99.90
5881;DHT22;2966;52.598;10.928;2023-01-24T03:41:04;1.20;99.90
5881;DHT22;2966;52.598;10.928;2023-01-24T03:43:33;1.10;99.90
5881;DHT22;2966;52.598;10.928;2023-01-24T03:45:59;1.10;99.90
5881;DHT22;2966;52.598;10.928;2023-01-24T03:48:26;1.10;99.90
5881;DHT22;2966;52.598;10.928;2023-01-24T03:51:03;1.10;99.90
5881;DHT22;2966;52.598;10.928;2023-01-24T03:53:48;1.10;99.90
5881;DHT22;2966;52.598;10.928;2023-01-24T03:56:14;1.10;99.90
5881;DHT22;2966;52.598;10.928;2023-01-24T03:58:42;1.20;99.90
5881;DHT22;2966;52.598;10.928;2023-01-24T04:01:09;1.20;99.90
5881;DHT22;2966;52.598;10.928;2023-01-24T04:03:36;1.20;99.90
5881;DHT22;2966;52.598;10.928;2023-01-24T04:06:03;1.10;99.90
5881;DHT22;2966;52.598;10.928;2023-01-24T04:08:29;1.20;99.90
5881;DHT22;2966;52.598;10.928;2023-01-24T04:10:56;1.10;99.90
5881;DHT22;2966;52.598;10.928;2023-01-24T04:13:23;1.10;99.90
5881;DHT22;2966;52.598;10.928;2023-01-24T04:15:51;1.10;99.90
5881;DHT22;2966;52.598;10.928;2023-01-24T04:18:18;1.10;99.90
5881;DHT22;2966;52.598;10.928;2023-01-24T04:20:45;1.10;99.90
5881;DHT22;2966;52.598;10.928;2023-01-24T04:23:11;1.10;99.90
5881;DHT22;2966;52.598;10.928;2023-01-24T04:25:38;1.10;99.90
5881;DHT22;2966;52.598;10.928;2023-01-24T04:28:05;1.10;99.90
5881;DHT22;2966;52.598;10.928;2023-01-24T04:30:31;1.10;99.90
5881;DHT22;2966;52.598;10.928;2023-01-24T04:33:00;1.10;99.90
5881;DHT22;2966;52.598;10.928;2023-01-24T04:35:28;1.10;99.90
5881;DHT22;2966;52.598;10.928;2023-01-24T04:37:59;1.10;99.90
5881;DHT22;2966;52.598;10.928;2023-01-24T04:40:26;1.10;99.90
5881;DHT22;2966;52.598;10.928;2023-01-24T04:42:54;1.10;99.90
5881;DHT22;2966;52.598;10.928;2023-01-24T04:45:21;1.10;99.90
5881;DHT22;2966;52.598;10.928;2023-01-24T04:47:48;1.10;99.90
5881;DHT22;2966;52.598;10.928;2023-01-24T04:50:16;1.10;99.90
5881;DHT22;2966;52.598;10.928;2023-01-24T04:52:43;1.10;99.90
5881;DHT22;2966;52.598;10.928;2023-01-24T04:55:09;1.10;99.90
5881;DHT22;2966;52.598;10.928;2023-01-24T04:57:36;1.10;99.90
5881;DHT22;2966;52.598;10.928;2023-01-24T05:00:04;1.10;99.90
5881;DHT22;2966;52.598;10.928;2023-01-24T05:02:33;1.10;99.90
5881;DHT22;2966;52.598;10.928;2023-01-24T05:05:00;1.10;99.90
5881;DHT22;2966;52.598;10.928;2023-01-24T05:07:28;1.10;99.90
5881;DHT22;2966;52.598;10.928;2023-01-24T05:09:55;1.10;99.90
5881;DHT22;2966;52.598;10.928;2023-01-24T05:12:22;1.00;99.90
5881;DHT22;2966;52.598;10.928;2023-01-24T05:14:48;1.10;99.90
5881;DHT22;2966;52.598;10.928;2023-01-24T05:17:15;1.10;99.90
5881;DHT22;2966;52.598;10.928;2023-01-24T05:19:42;1.10;99.90
5881;DHT22;2966;52.598;10.928;2023-01-24T05:22:08;1.10;99.90
5881;DHT22;2966;52.598;10.928;2023-01-24T05:24:36;1.10;99.90
5881;DHT22;2966;52.598;10.928;2023-01-24T05:27:03;1.00;99.90
5881;DHT22;2966;52.598;10.928;2023-01-24T05:29:30;1.00;99.90
5881;DHT22;2966;52.598;10.928;2023-01-24T05:31:56;1.00;99.90
5881;DHT22;2966;52.598;10.928;2023-01-24T05:34:23;1.00;99.90
5881;DHT22;2966;52.598;10.928;2023-01-24T05:36:50;1.00;99.90
5881;DHT22;2966;52.598;10.928;2023-01-24T05:39:16;1.00;99.90
5881;DHT22;2966;52.598;10.928;2023-01-24T05:41:44;1.00;99.90
5881;DHT22;2966;52.598;10.928;2023-01-24T05:44:11;1.00;99.90
5881;DHT22;2966;52.598;10.928;2023-01-24T05:46:38;1.00;99.90
5881;DHT22;2966;52.598;10.928;2023-01-24T05:49:04;1.00;99.90
5881;DHT22;2966;52.598;10.928;2023-01-24T05:51:31;1.00;99.90
5881;DHT22;2966;52.598;10.928;2023-01-24T05:53:58;1.00;99.90
5881;DHT22;2966;52.598;10.928;2023-01-24T05:56:24;1.00;99.90
5881;DHT22;2966;52.598;10.928;2023-01-24T05:58:54;1.00;99.90
5881;DHT22;2966;52.598;10.928;2023-01-24T06:01:22;1.00;99.90
5881;DHT22;2966;52.598;10.928;2023-01-24T06:03:50;1.00;99.90
5881;DHT22;2966;52.598;10.928;2023-01-24T06:06:19;1.00;99.90
5881;DHT22;2966;52.598;10.928;2023-01-24T06:08:46;1.00;99.90
5881;DHT22;2966;52.598;10.928;2023-01-24T06:11:14;1.00;99.90
5881;DHT22;2966;52.598;10.928;2023-01-24T06:13:42;1.00;99.90
5881;DHT22;2966;52.598;10.928;2023-01-24T06:16:12;0.90;99.90
5881;DHT22;2966;52.598;10.928;2023-01-24T06:18:39;0.90;99.90
5881;DHT22;2966;52.598;10.928;2023-01-24T06:21:08;0.90;99.90
5881;DHT22;2966;52.598;10.928;2023-01-24T06:23:38;1.00;99.90
5881;DHT22;2966;52.598;10.928;2023-01-24T06:26:08;1.00;99.90
5881;DHT22;2966;52.598;10.928;2023-01-24T06:28:35;1.00;99.90
5881;DHT22;2966;52.598;10.928;2023-01-24T06:31:05;1.00;99.90
5881;DHT22;2966;52.598;10.928;2023-01-24T06:33:40;1.00;99.90
5881;DHT22;2966;52.598;10.928;2023-01-24T06:39:10;0.90;99.90
5881;DHT22;2966;52.598;10.928;2023-01-24T06:41:39;0.90;99.90
5881;DHT22;2966;52.598;10.928;2023-01-24T06:44:07;0.90;99.90
5881;DHT22;2966;52.598;10.928;2023-01-24T06:46:34;0.90;99.90
5881;DHT22;2966;52.598;10.928;2023-01-24T06:49:05;0.90;99.90
5881;DHT22;2966;52.598;10.928;2023-01-24T06:51:32;1.00;99.90
5881;DHT22;2966;52.598;10.928;2023-01-24T06:53:59;0.90;99.90
5881;DHT22;2966;52.598;10.928;2023-01-24T06:56:25;0.90;99.90
5881;DHT22;2966;52.598;10.928;2023-01-24T06:58:52;0.90;99.90
5881;DHT22;2966;52.598;10.928;2023-01-24T07:01:19;0.90;99.90
5881;DHT22;2966;52.598;10.928;2023-01-24T07:03:45;0.90;99.90
5881;DHT22;2966;52.598;10.928;2023-01-24T07:06:14;0.90;99.90
5881;DHT22;2966;52.598;10.928;2023-01-24T07:08:40;0.90;99.90
5881;DHT22;2966;52.598;10.928;2023-01-24T07:11:07;0.90;99.90
5881;DHT22;2966;52.598;10.928;2023-01-24T07:13:34;0.90;99.90
5881;DHT22;2966;52.598;10.928;2023-01-24T07:16:01;0.90;99.90
5881;DHT22;2966;52.598;10.928;2023-01-24T07:18:28;0.90;99.90
5881;DHT22;2966;52.598;10.928;2023-01-24T07:20:56;0.90;99.90
5881;DHT22;2966;52.598;10.928;2023-01-24T07:23:25;0.90;99.90
5881;DHT22;2966;52.598;10.928;2023-01-24T07:25:54;0.90;99.90
5881;DHT22;2966;52.598;10.928;2023-01-24T07:28:21;0.90;99.90
5881;DHT22;2966;52.598;10.928;2023-01-24T07:30:48;0.90;99.90
5881;DHT22;2966;52.598;10.928;2023-01-24T07:33:15;0.90;99.90
5881;DHT22;2966;52.598;10.928;2023-01-24T07:35:42;0.90;99.90
5881;DHT22;2966;52.598;10.928;2023-01-24T07:38:10;0.90;99.90
5881;DHT22;2966;52.598;10.928;2023-01-24T07:40:38;0.90;99.90
5881;DHT22;2966;52.598;10.928;2023-01-24T07:43:05;0.90;99.90
5881;DHT22;2966;52.598;10.928;2023-01-24T07:45:32;0.90;99.90
5881;DHT22;2966;52.598;10.928;2023-01-24T07:48:00;0.90;99.90
5881;DHT22;2966;52.598;10.928;2023-01-24T07:50:27;0.90;99.90
5881;DHT22;2966;52.598;10.928;2023-01-24T07:52:56;0.90;99.90
5881;DHT22;2966;52.598;10.928;2023-01-24T07:55:23;0.90;99.90
5881;DHT22;2966;52.598;10.928;2023-01-24T07:57:51;0.90;99.90
5881;DHT22;2966;52.598;10.928;2023-01-24T08:00:19;0.90;99.90
5881;DHT22;2966;52.598;10.928;2023-01-24T08:02:48;0.90;99.90
5881;DHT22;2966;52.598;10.928;2023-01-24T08:05:14;0.90;99.90
5881;DHT22;2966;52.598;10.928;2023-01-24T08:07:41;0.90;99.90
5881;DHT22;2966;52.598;10.928;2023-01-24T08:10:09;0.90;99.90
5881;DHT22;2966;52.598;10.928;2023-01-24T08:12:36;0.80;99.90
5881;DHT22;2966;52.598;10.928;2023-01-24T08:15:05;0.80;99.90
5881;DHT22;2966;52.598;10.928;2023-01-24T08:17:34;0.80;99.90
5881;DHT22;2966;52.598;10.928;2023-01-24T08:20:01;0.80;99.90
5881;DHT22;2966;52.598;10.928;2023-01-24T08:22:28;0.80;99.90
5881;DHT22;2966;52.598;10.928;2023-01-24T08:24:54;0.80;99.90
5881;DHT22;2966;52.598;10.928;2023-01-24T08:27:21;0.90;99.90
5881;DHT22;2966;52.598;10.928;2023-01-24T08:29:48;0.90;99.90
5881;DHT22;2966;52.598;10.928;2023-01-24T08:32:16;0.90;99.90
5881;DHT22;2966;52.598;10.928;2023-01-24T08:34:42;0.90;99.90
5881;DHT22;2966;52.598;10.928;2023-01-24T08:37:09;0.80;99.90
5881;DHT22;2966;52.598;10.928;2023-01-24T08:39:36;0.80;99.90
5881;DHT22;2966;52.598;10.928;2023-01-24T08:42:02;0.80;99.90
5881;DHT22;2966;52.598;10.928;2023-01-24T08:44:29;0.80;99.90
5881;DHT22;2966;52.598;10.928;2023-01-24T08:46:56;0.80;99.90
5881;DHT22;2966;52.598;10.928;2023-01-24T08:49:24;0.80;99.90
5881;DHT22;2966;52.598;10.928;2023-01-24T08:51:51;0.80;99.90
5881;DHT22;2966;52.598;10.928;2023-01-24T08:54:24;0.80;99.90
5881;DHT22;2966;52.598;10.928;2023-01-24T08:56:50;0.80;99.90
5881;DHT22;2966;52.598;10.928;2023-01-24T08:59:17;0.80;99.90
5881;DHT22;2966;52.598;10.928;2023-01-24T09:01:44;0.80;99.90
5881;DHT22;2966;52.598;10.928;2023-01-24T09:04:11;0.80;99.90
5881;DHT22;2966;52.598;10.928;2023-01-24T09:06:39;0.80;99.90
5881;DHT22;2966;52.598;10.928;2023-01-24T09:09:06;0.80;99.90
5881;DHT22;2966;52.598;10.928;2023-01-24T09:11:32;0.80;99.90
5881;DHT22;2966;52.598;10.928;2023-01-24T09:13:59;0.80;99.90
5881;DHT22;2966;52.598;10.928;2023-01-24T09:16:26;0.80;99.90
5881;DHT22;2966;52.598;10.928;2023-01-24T09:18:53;0.80;99.90
5881;DHT22;2966;52.598;10.928;2023-01-24T09:21:20;0.80;99.90
5881;DHT22;2966;52.598;10.928;2023-01-24T09:23:53;0.80;99.90
5881;DHT22;2966;52.598;10.928;2023-01-24T09:26:20;0.80;99.90
5881;DHT22;2966;52.598;10.928;2023-01-24T09:28:46;0.80;99.90
5881;DHT22;2966;52.598;10.928;2023-01-24T09:31:13;0.80;99.90
5881;DHT22;2966;52.598;10.928;2023-01-24T09:33:40;0.80;99.90
5881;DHT22;2966;52.598;10.928;2023-01-24T09:36:07;0.80;99.90
5881;DHT22;2966;52.598;10.928;2023-01-24T09:38:34;0.80;99.90
5881;DHT22;2966;52.598;10.928;2023-01-24T09:41:10;0.90;99.90
5881;DHT22;2966;52.598;10.928;2023-01-24T09:43:43;0.80;99.90
5881;DHT22;2966;52.598;10.928;2023-01-24T09:46:20;0.80;99.90
5881;DHT22;2966;52.598;10.928;2023-01-24T09:48:54;0.90;99.90
5881;DHT22;2966;52.598;10.928;2023-01-24T09:51:27;0.80;99.90
5881;DHT22;2966;52.598;10.928;2023-01-24T09:53:57;0.80;99.90
5881;DHT22;2966;52.598;10.928;2023-01-24T09:56:30;0.90;99.90
5881;DHT22;2966;52.598;10.928;2023-01-24T09:59:09;0.90;99.90
5881;DHT22;2966;52.598;10.928;2023-01-24T10:01:39;0.90;99.90
5881;DHT22;2966;52.598;10.928;2023-01-24T10:04:15;0.90;99.90
5881;DHT22;2966;52.598;10.928;2023-01-24T10:07:09;0.90;99.90
5881;DHT22;2966;52.598;10.928;2023-01-24T10:10:02;0.90;99.90
5881;DHT22;2966;52.598;10.928;2023-01-24T10:12:41;0.80;99.90
5881;DHT22;2966;52.598;10.928;2023-01-24T10:15:19;0.80;99.90
5881;DHT22;2966;52.598;10.928;2023-01-24T10:17:58;0.80;99.90
5881;DHT22;2966;52.598;10.928;2023-01-24T10:20:40;0.80;99.90
5881;DHT22;2966;52.598;10.928;2023-01-24T10:23:12;0.80;99.90
5881;DHT22;2966;52.598;10.928;2023-01-24T10:25:49;0.80;99.90
5881;DHT22;2966;52.598;10.928;2023-01-24T10:28:26;0.80;99.90
5881;DHT22;2966;52.598;10.928;2023-01-24T10:30:58;0.80;99.90
5881;DHT22;2966;52.598;10.928;2023-01-24T10:33:31;0.90;99.90
5881;DHT22;2966;52.598;10.928;2023-01-24T10:36:01;0.80;99.90
5881;DHT22;2966;52.598;10.928;2023-01-24T10:38:30;0.80;99.90
5881;DHT22;2966;52.598;10.928;2023-01-24T10:41:11;0.80;99.90
5881;DHT22;2966;52.598;10.928;2023-01-24T10:43:42;0.80;99.90
5881;DHT22;2966;52.598;10.928;2023-01-24T10:46:18;0.90;99.90
5881;DHT22;2966;52.598;10.928;2023-01-24T10:48:50;0.80;99.90
5881;DHT22;2966;52.598;10.928;2023-01-24T10:51:20;0.80;99.90
5881;DHT22;2966;52.598;10.928;2023-01-24T10:53:47;0.80;99.90
5881;DHT22;2966;52.598;10.928;2023-01-24T10:56:16;0.80;99.90
5881;DHT22;2966;52.598;10.928;2023-01-24T10:58:55;0.90;99.90
5881;DHT22;2966;52.598;10.928;2023-01-24T11:01:23;0.90;99.90
5881;DHT22;2966;52.598;10.928;2023-01-24T11:03:51;0.90;99.90
5881;DHT22;2966;52.598;10.928;2023-01-24T11:06:22;0.90;99.90
5881;DHT22;2966;52.598;10.928;2023-01-24T11:08:54;0.90;99.90
5881;DHT22;2966;52.598;10.928;2023-01-24T11:11:24;0.90;99.90
5881;DHT22;2966;52.598;10.928;2023-01-24T11:13:56;0.90;99.90
5881;DHT22;2966;52.598;10.928;2023-01-24T11:16:27;0.90;99.90
5881;DHT22;2966;52.598;10.928;2023-01-24T11:18:57;0.90;99.90
5881;DHT22;2966;52.598;10.928;2023-01-24T11:21:27;0.90;99.90
5881;DHT22;2966;52.598;10.928;2023-01-24T11:24:08;0.90;99.90
5881;DHT22;2966;52.598;10.928;2023-01-24T11:26:56;0.90;99.90
5881;DHT22;2966;52.598;10.928;2023-01-24T11:29:25;0.90;99.90
5881;DHT22;2966;52.598;10.928;2023-01-24T11:31:53;0.90;99.90
5881;DHT22;2966;52.598;10.928;2023-01-24T11:34:46;0.90;99.90
5881;DHT22;2966;52.598;10.928;2023-01-24T11:40:32;0.90;99.90
5881;DHT22;2966;52.598;10.928;2023-01-24T11:43:21;0.90;99.90
5881;DHT22;2966;52.598;10.928;2023-01-24T11:46:04;0.90;99.90
5881;DHT22;2966;52.598;10.928;2023-01-24T11:48:37;0.90;99.90
5881;DHT22;2966;52.598;10.928;2023-01-24T11:51:09;1.00;99.90
5881;DHT22;2966;52.598;10.928;2023-01-24T11:56:34;1.00;99.90
5881;DHT22;2966;52.598;10.928;2023-01-24T11:59:22;1.00;99.90
5881;DHT22;2966;52.598;10.928;2023-01-24T12:02:03;1.00;99.90
5881;DHT22;2966;52.598;10.928;2023-01-24T12:04:46;1.00;99.90
5881;DHT22;2966;52.598;10.928;2023-01-24T12:07:19;1.10;99.90
5881;DHT22;2966;52.598;10.928;2023-01-24T12:09:51;1.10;99.90
5881;DHT22;2966;52.598;10.928;2023-01-24T12:12:24;1.10;99.90
5881;DHT22;2966;52.598;10.928;2023-01-24T12:15:17;1.10;99.90
5881;DHT22;2966;52.598;10.928;2023-01-24T12:17:57;1.20;99.90
5881;DHT22;2966;52.598;10.928;2023-01-24T12:20:36;1.20;99.90
5881;DHT22;2966;52.598;10.928;2023-01-24T12:23:14;1.30;99.90
5881;DHT22;2966;52.598;10.928;2023-01-24T12:25:44;1.30;99.90
5881;DHT22;2966;52.598;10.928;2023-01-24T12:28:16;1.20;99.90
5881;DHT22;2966;52.598;10.928;2023-01-24T12:30:49;1.20;99.90
5881;DHT22;2966;52.598;10.928;2023-01-24T12:33:25;1.30;99.90
5881;DHT22;2966;52.598;10.928;2023-01-24T12:35:56;1.40;99.90
5881;DHT22;2966;52.598;10.928;2023-01-24T12:38:26;1.30;99.90
5881;DHT22;2966;52.598;10.928;2023-01-24T12:41:00;1.40;99.90
5881;DHT22;2966;52.598;10.928;2023-01-24T12:43:34;1.40;99.90
5881;DHT22;2966;52.598;10.928;2023-01-24T12:46:08;1.30;99.90
5881;DHT22;2966;52.598;10.928;2023-01-24T12:48:45;1.30;99.90
5881;DHT22;2966;52.598;10.928;2023-01-24T12:51:18;1.30;99.90
5881;DHT22;2966;52.598;10.928;2023-01-24T12:53:56;1.40;99.90
5881;DHT22;2966;52.598;10.928;2023-01-24T12:56:28;1.40;99.90
5881;DHT22;2966;52.598;10.928;2023-01-24T12:58:57;1.30;99.90
5881;DHT22;2966;52.598;10.928;2023-01-24T13:01:48;1.30;99.90
5881;DHT22;2966;52.598;10.928;2023-01-24T13:04:29;1.30;99.90
5881;DHT22;2966;52.598;10.928;2023-01-24T13:07:08;1.30;99.90
5881;DHT22;2966;52.598;10.928;2023-01-24T13:09:41;1.20;99.90
5881;DHT22;2966;52.598;10.928;2023-01-24T13:12:11;1.20;99.90
5881;DHT22;2966;52.598;10.928;2023-01-24T13:14:42;1.20;99.90
5881;DHT22;2966;52.598;10.928;2023-01-24T13:17:20;1.30;99.90
5881;DHT22;2966;52.598;10.928;2023-01-24T13:20:11;1.30;99.90
5881;DHT22;2966;52.598;10.928;2023-01-24T13:22:50;1.30;99.90
5881;DHT22;2966;52.598;10.928;2023-01-24T13:25:35;1.30;99.90
5881;DHT22;2966;52.598;10.928;2023-01-24T13:28:09;1.30;99.90
5881;DHT22;2966;52.598;10.928;2023-01-24T13:30:46;1.30;99.90
5881;DHT22;2966;52.598;10.928;2023-01-24T13:33:17;1.40;99.90
5881;DHT22;2966;52.598;10.928;2023-01-24T13:35:47;1.50;99.90
5881;DHT22;2966;52.598;10.928;2023-01-24T13:38:21;1.50;99.90
5881;DHT22;2966;52.598;10.928;2023-01-24T13:40:59;1.50;99.90
5881;DHT22;2966;52.598;10.928;2023-01-24T13:43:55;1.50;99.90
5881;DHT22;2966;52.598;10.928;2023-01-24T13:47:03;1.50;99.90
5881;DHT22;2966;52.598;10.928;2023-01-24T13:49:38;1.40;99.90
5881;DHT22;2966;52.598;10.928;2023-01-24T13:55:59;1.40;99.90
5881;DHT22;2966;52.598;10.928;2023-01-24T13:58:27;1.20;99.90
5881;DHT22;2966;52.598;10.928;2023-01-24T14:00:59;1.20;99.90
5881;DHT22;2966;52.598;10.928;2023-01-24T14:03:32;1.10;99.90
5881;DHT22;2966;52.598;10.928;2023-01-24T14:06:07;1.00;99.90
5881;DHT22;2966;52.598;10.928;2023-01-24T14:08:43;1.00;99.90
5881;DHT22;2966;52.598;10.928;2023-01-24T14:11:19;1.00;99.90
5881;DHT22;2966;52.598;10.928;2023-01-24T14:13:58;0.90;99.90
5881;DHT22;2966;52.598;10.928;2023-01-24T14:16:58;0.90;99.90
5881;DHT22;2966;52.598;10.928;2023-01-24T14:19:28;1.00;99.90
5881;DHT22;2966;52.598;10.928;2023-01-24T14:22:04;1.10;99.90
5881;DHT22;2966;52.598;10.928;2023-01-24T14:24:34;1.10;99.90
5881;DHT22;2966;52.598;10.928;2023-01-24T14:27:16;1.10;99.90
5881;DHT22;2966;52.598;10.928;2023-01-24T14:29:46;1.10;99.90
5881;DHT22;2966;52.598;10.928;2023-01-24T14:32:20;1.00;99.90
5881;DHT22;2966;52.598;10.928;2023-01-24T14:34:51;1.00;99.90
5881;DHT22;2966;52.598;10.928;2023-01-24T14:37:19;1.10;99.90
5881;DHT22;2966;52.598;10.928;2023-01-24T14:39:46;1.10;99.90
5881;DHT22;2966;52.598;10.928;2023-01-24T14:42:15;1.00;99.90
5881;DHT22;2966;52.598;10.928;2023-01-24T14:44:49;1.00;99.90
5881;DHT22;2966;52.598;10.928;2023-01-24T14:47:19;1.00;99.90
5881;DHT22;2966;52.598;10.928;2023-01-24T14:49:47;1.00;99.90
5881;DHT22;2966;52.598;10.928;2023-01-24T14:52:19;1.00;99.90
5881;DHT22;2966;52.598;10.928;2023-01-24T14:54:48;1.00;99.90
5881;DHT22;2966;52.598;10.928;2023-01-24T14:57:22;1.00;99.90
5881;DHT22;2966;52.598;10.928;2023-01-24T15:00:00;1.00;99.90
5881;DHT22;2966;52.598;10.928;2023-01-24T15:02:27;0.90;99.90
5881;DHT22;2966;52.598;10.928;2023-01-24T15:04:54;0.90;99.90
5881;DHT22;2966;52.598;10.928;2023-01-24T15:07:21;0.90;99.90
5881;DHT22;2966;52.598;10.928;2023-01-24T15:09:48;0.90;99.90
5881;DHT22;2966;52.598;10.928;2023-01-24T15:12:24;0.90;99.90
5881;DHT22;2966;52.598;10.928;2023-01-24T15:14:57;0.90;99.90
5881;DHT22;2966;52.598;10.928;2023-01-24T15:17:28;0.90;99.90
5881;DHT22;2966;52.598;10.928;2023-01-24T15:19:58;0.90;99.90
5881;DHT22;2966;52.598;10.928;2023-01-24T15:22:26;0.90;99.90
5881;DHT22;2966;52.598;10.928;2023-01-24T15:24:55;0.80;99.90
5881;DHT22;2966;52.598;10.928;2023-01-24T15:27:35;0.80;99.90
5881;DHT22;2966;52.598;10.928;2023-01-24T15:30:17;0.80;99.90
5881;DHT22;2966;52.598;10.928;2023-01-24T15:32:45;0.80;99.90
5881;DHT22;2966;52.598;10.928;2023-01-24T15:35:19;0.80;99.90
5881;DHT22;2966;52.598;10.928;2023-01-24T15:37:47;0.80;99.90
5881;DHT22;2966;52.598;10.928;2023-01-24T15:40:25;0.80;99.90
5881;DHT22;2966;52.598;10.928;2023-01-24T15:42:53;0.80;99.90
5881;DHT22;2966;52.598;10.928;2023-01-24T15:45:38;0.80;99.90
5881;DHT22;2966;52.598;10.928;2023-01-24T15:48:15;0.70;99.90
5881;DHT22;2966;52.598;10.928;2023-01-24T15:50:55;0.70;99.90
5881;DHT22;2966;52.598;10.928;2023-01-24T15:53:37;0.70;99.90
5881;DHT22;2966;52.598;10.928;2023-01-24T15:56:07;0.70;99.90
5881;DHT22;2966;52.598;10.928;2023-01-24T15:58:37;0.70;99.90
5881;DHT22;2966;52.598;10.928;2023-01-24T16:01:04;0.70;99.90
5881;DHT22;2966;52.598;10.928;2023-01-24T16:03:31;0.70;99.90
5881;DHT22;2966;52.598;10.928;2023-01-24T16:05:58;0.70;99.90
5881;DHT22;2966;52.598;10.928;2023-01-24T16:08:25;0.70;99.90
5881;DHT22;2966;52.598;10.928;2023-01-24T16:10:51;0.70;99.90
5881;DHT22;2966;52.598;10.928;2023-01-24T16:13:33;0.60;99.90
5881;DHT22;2966;52.598;10.928;2023-01-24T16:16:05;0.60;99.90
5881;DHT22;2966;52.598;10.928;2023-01-24T16:18:32;0.70;99.90
5881;DHT22;2966;52.598;10.928;2023-01-24T16:20:59;0.70;99.90
5881;DHT22;2966;52.598;10.928;2023-01-24T16:23:26;0.70;99.90
5881;DHT22;2966;52.598;10.928;2023-01-24T16:25:55;0.70;99.90
5881;DHT22;2966;52.598;10.928;2023-01-24T16:28:24;0.70;99.90
5881;DHT22;2966;52.598;10.928;2023-01-24T16:30:52;0.70;99.90
5881;DHT22;2966;52.598;10.928;2023-01-24T16:33:21;0.60;99.90
5881;DHT22;2966;52.598;10.928;2023-01-24T16:35:47;0.60;99.90
5881;DHT22;2966;52.598;10.928;2023-01-24T16:38:14;0.60;99.90
5881;DHT22;2966;52.598;10.928;2023-01-24T16:40:42;0.60;99.90